createdAt,value
2023-03-13T00:01:49.316Z,63.46
2023-03-13T00:06:52.189Z,63.72
2023-03-13T00:11:55.112Z,63.67
2023-03-13T00:16:58.006Z,64.99
2023-03-13T00:22:00.784Z,65.08
2023-03-13T00:27:05.287Z,65.35
2023-03-13T00:32:08.134Z,65.52
2023-03-13T00:37:10.981Z,65.83
2023-03-13T00:42:13.779Z,65.98
2023-03-13T00:47:16.600Z,66.05
2023-03-13T00:52:19.448Z,65.51
2023-03-13T00:57:22.331Z,65.23
2023-03-13T01:02:25.392Z,64.01
2023-03-13T01:07:29.971Z,62.71
2023-03-13T01:12:32.810Z,62.46
2023-03-13T01:17:35.660Z,62.23
2023-03-13T01:22:38.680Z,61.83
2023-03-13T01:27:41.483Z,62.68
2023-03-13T01:32:44.290Z,63.11
2023-03-13T01:37:47.221Z,63.23
2023-03-13T01:42:55.648Z,63.19
2023-03-13T01:47:58.802Z,63.20
2023-03-13T01:53:01.661Z,63.28
2023-03-13T01:58:04.705Z,63.35
2023-03-13T02:03:11.530Z,63.18
2023-03-13T02:08:19.268Z,62.98
2023-03-13T02:13:22.665Z,63.16
2023-03-13T02:18:26.735Z,63.81
2023-03-13T02:23:35.975Z,64.67
2023-03-13T02:28:39.702Z,64.39
2023-03-13T02:33:44.164Z,64.89
2023-03-13T02:39:00.563Z,66.31
2023-03-13T02:44:03.453Z,67.15
2023-03-13T02:49:22.663Z,67.34
2023-03-13T02:54:31.890Z,67.75
2023-03-13T02:59:35.003Z,68.36
2023-03-13T03:04:37.931Z,68.55
2023-03-13T03:09:40.743Z,68.66
2023-03-13T03:14:43.589Z,69.10
2023-03-13T03:19:46.405Z,69.39
2023-03-13T03:24:49.188Z,69.84
2023-03-13T03:29:52.005Z,70.02
2023-03-13T03:34:54.780Z,70.39
2023-03-13T03:39:57.592Z,70.90
2023-03-13T03:45:00.389Z,71.57
2023-03-13T03:50:04.615Z,72.15
2023-03-13T03:55:07.770Z,72.16
2023-03-13T04:00:15.942Z,72.60
2023-03-13T04:05:18.820Z,73.23
2023-03-13T04:10:21.912Z,74.51
2023-03-13T04:15:24.846Z,74.92
2023-03-13T04:20:29.042Z,75.57
2023-03-13T04:25:31.914Z,75.92
2023-03-13T04:30:34.805Z,75.99
2023-03-13T04:35:37.707Z,76.96
2023-03-13T04:40:40.763Z,77.22
2023-03-13T04:45:43.632Z,77.48
2023-03-13T04:50:48.770Z,77.79
2023-03-13T04:55:51.707Z,78.27
2023-03-13T05:00:55.325Z,78.24
2023-03-13T05:05:58.149Z,78.47
2023-03-13T05:11:01.127Z,78.70
2023-03-13T05:16:04.408Z,78.71
2023-03-13T05:21:07.893Z,78.29
2023-03-13T05:26:10.855Z,78.46
2023-03-13T05:31:13.833Z,78.77
2023-03-13T05:36:16.967Z,78.88
2023-03-13T05:41:19.975Z,79.41
2023-03-13T05:46:22.912Z,79.86
2023-03-13T05:51:25.976Z,80.10
2023-03-13T05:56:28.881Z,79.86
2023-03-13T06:01:31.813Z,80.03
2023-03-13T06:06:34.776Z,80.06
2023-03-13T06:11:38.195Z,80.00
2023-03-13T06:16:41.290Z,79.75
2023-03-13T06:21:44.197Z,80.27
2023-03-13T06:26:49.737Z,80.24
2023-03-13T06:31:53.237Z,80.73
2023-03-13T06:36:58.748Z,80.94
2023-03-13T06:42:01.744Z,80.70
2023-03-13T06:47:04.848Z,80.75
2023-03-13T06:52:08.347Z,80.92
2023-03-13T06:57:11.248Z,80.38
2023-03-13T07:02:15.361Z,80.33
2023-03-13T07:07:31.011Z,80.54
2023-03-13T07:12:35.654Z,80.65
2023-03-13T07:17:38.577Z,80.41
2023-03-13T07:22:41.541Z,80.43
2023-03-13T07:27:44.480Z,80.44
2023-03-13T07:32:47.372Z,80.35
2023-03-13T07:37:50.455Z,80.12
2023-03-13T07:42:53.389Z,79.87
2023-03-13T07:47:56.352Z,79.47
2023-03-13T07:52:59.190Z,79.03
2023-03-13T07:58:02.055Z,78.83
2023-03-13T08:03:07.576Z,78.84
2023-03-13T08:08:10.754Z,78.69
2023-03-13T08:13:13.626Z,78.50
2023-03-13T08:18:16.524Z,78.52
2023-03-13T08:23:19.476Z,78.28
2023-03-13T08:28:22.429Z,77.93
2023-03-13T08:33:25.553Z,77.94
2023-03-13T08:38:28.736Z,77.84
2023-03-13T08:43:31.643Z,77.66
2023-03-13T08:48:34.570Z,77.50
2023-03-13T08:53:38.579Z,77.23
2023-03-13T08:58:41.881Z,77.14
2023-03-13T09:03:44.734Z,76.65
2023-03-13T09:08:47.799Z,76.01
2023-03-13T09:13:51.257Z,76.03
2023-03-13T09:18:54.670Z,75.77
2023-03-13T09:23:58.039Z,75.69
2023-03-13T09:29:00.908Z,75.93
2023-03-13T09:34:04.223Z,75.89
2023-03-13T09:39:07.015Z,75.52
2023-03-13T09:44:25.151Z,75.56
2023-03-13T09:49:40.146Z,75.54
2023-03-13T09:55:05.563Z,75.29
2023-03-13T10:00:20.093Z,75.08
2023-03-13T10:05:25.921Z,74.85
2023-03-13T10:10:39.295Z,74.68
2023-03-13T10:15:51.150Z,74.39
2023-03-13T10:20:59.916Z,73.95
2023-03-13T10:26:02.968Z,73.83
2023-03-13T10:31:14.664Z,73.86
2023-03-13T10:36:19.622Z,73.36
2023-03-13T10:41:35.483Z,73.29
2023-03-13T10:46:41.376Z,73.40
2023-03-13T10:51:52.503Z,72.92
2023-03-13T10:57:37.788Z,72.51
2023-03-13T11:02:40.808Z,72.30
2023-03-13T11:07:45.602Z,72.35
2023-03-13T11:12:53.876Z,71.84
2023-03-13T11:18:05.219Z,71.49
2023-03-13T11:23:17.760Z,70.85
2023-03-13T11:28:54.856Z,70.13
2023-03-13T11:33:58.994Z,70.36
2023-03-13T11:39:20.276Z,69.66
2023-03-13T11:44:48.946Z,69.67
2023-03-13T11:50:19.225Z,69.69
2023-03-13T11:55:47.138Z,69.92
2023-03-13T12:01:20.432Z,69.61
2023-03-13T12:06:33.908Z,69.46
2023-03-13T12:11:43.919Z,68.97
2023-03-13T12:17:37.185Z,68.92
2023-03-13T12:22:45.559Z,68.55
2023-03-13T12:27:52.924Z,68.38
2023-03-13T12:33:01.805Z,68.33
2023-03-13T12:38:12.685Z,68.36
2023-03-13T12:43:20.392Z,68.48
2023-03-13T12:48:44.817Z,68.19
2023-03-13T12:54:14.186Z,67.96
2023-03-13T12:59:21.869Z,67.54
2023-03-13T13:04:31.364Z,67.20
2023-03-13T13:09:55.502Z,66.86
2023-03-13T13:15:04.230Z,66.37
2023-03-13T13:20:35.200Z,66.20
2023-03-13T13:25:38.040Z,65.90
2023-03-13T13:30:40.900Z,65.67
2023-03-13T13:35:43.979Z,65.23
2023-03-13T13:41:05.452Z,65.32
2023-03-13T13:46:10.705Z,65.49
2023-03-13T13:51:18.769Z,66.13
2023-03-13T13:56:41.213Z,65.68
2023-03-13T14:01:45.008Z,66.37
2023-03-13T14:06:50.898Z,66.41
2023-03-13T14:11:53.716Z,66.49
2023-03-13T14:16:57.558Z,66.57
2023-03-13T14:22:01.157Z,66.92
2023-03-13T14:27:17.874Z,67.98
2023-03-13T14:32:25.821Z,69.23
2023-03-13T14:37:47.055Z,69.90
2023-03-13T14:42:56.345Z,70.67
2023-03-13T14:48:05.218Z,71.16
2023-03-13T14:53:21.718Z,71.91
2023-03-13T14:58:29.291Z,72.24
2023-03-13T15:03:33.389Z,72.81
2023-03-13T15:08:38.473Z,73.27
2023-03-13T15:13:41.264Z,73.32
2023-03-13T15:18:44.159Z,72.76
2023-03-13T15:24:15.360Z,72.66
2023-03-13T15:29:18.532Z,72.72
2023-03-13T15:34:25.428Z,72.74
2023-03-13T15:39:29.701Z,72.65
2023-03-13T15:44:32.584Z,72.47
2023-03-13T15:49:35.443Z,72.18
2023-03-13T15:54:38.245Z,71.74
2023-03-13T15:59:41.739Z,71.78
2023-03-13T16:04:45.391Z,72.12
2023-03-13T16:09:49.084Z,72.73
2023-03-13T16:14:51.904Z,73.06
2023-03-13T16:19:55.812Z,73.40
2023-03-13T16:24:59.012Z,73.94
2023-03-13T16:30:02.249Z,74.18
2023-03-13T16:35:05.498Z,74.21
2023-03-13T16:40:17.828Z,74.16
2023-03-13T16:45:21.213Z,74.37
2023-03-13T16:50:27.292Z,74.52
2023-03-13T16:55:31.686Z,74.35
2023-03-13T17:00:34.795Z,74.67
2023-03-13T17:05:37.880Z,75.22
2023-03-13T17:10:40.798Z,75.52
2023-03-13T17:15:43.647Z,75.34
2023-03-13T17:20:48.436Z,75.69
2023-03-13T17:25:51.339Z,75.94
2023-03-13T17:30:54.187Z,76.20
2023-03-13T17:35:57.295Z,75.93
2023-03-13T17:41:00.101Z,75.79
2023-03-13T17:46:02.934Z,75.79
2023-03-13T17:51:05.994Z,75.63
2023-03-13T17:56:18.083Z,75.52
2023-03-13T18:01:22.665Z,75.43
2023-03-13T18:06:29.821Z,75.42
2023-03-13T18:11:32.625Z,74.84
2023-03-13T18:16:43.464Z,74.89
2023-03-13T18:21:47.674Z,74.93
2023-03-13T18:26:50.588Z,74.76
2023-03-13T18:31:55.508Z,74.49
2023-03-13T18:37:03.798Z,74.14
2023-03-13T18:42:07.583Z,74.02
2023-03-13T18:47:16.262Z,73.84
2023-03-13T18:52:19.045Z,73.52
2023-03-13T18:57:21.915Z,73.43
2023-03-13T19:02:24.733Z,73.30
2023-03-13T19:07:28.175Z,73.17
2023-03-13T19:12:31.026Z,72.97
2023-03-13T19:17:33.893Z,72.70
2023-03-13T19:22:36.752Z,72.90
2023-03-13T19:27:40.937Z,72.88
2023-03-13T19:32:44.155Z,72.68
2023-03-13T19:37:47.656Z,72.36
2023-03-13T19:42:50.538Z,72.27
2023-03-13T19:47:53.352Z,72.25
2023-03-13T19:52:56.152Z,72.44
2023-03-13T19:57:58.946Z,72.28
2023-03-13T20:03:01.971Z,72.29
2023-03-13T20:08:04.927Z,72.41
2023-03-13T20:13:07.763Z,72.34
2023-03-13T20:18:10.579Z,72.21
2023-03-13T20:23:13.365Z,72.48
2023-03-13T20:28:16.206Z,72.18
2023-03-13T20:33:19.081Z,72.36
2023-03-13T20:38:21.940Z,72.51
2023-03-13T20:43:25.144Z,72.72
2023-03-13T20:48:28.109Z,72.45
2023-03-13T20:53:31.019Z,72.55
2023-03-13T20:58:34.820Z,72.61
2023-03-13T21:03:37.696Z,72.68
2023-03-13T21:08:40.981Z,72.62
2023-03-13T21:13:44.144Z,72.68
2023-03-13T21:18:47.918Z,72.93
2023-03-13T21:23:52.311Z,73.06
2023-03-13T21:28:55.095Z,73.33
2023-03-13T21:33:57.939Z,73.35
2023-03-13T21:39:00.817Z,73.32
2023-03-13T21:44:03.675Z,73.14
2023-03-13T21:49:06.560Z,72.64
2023-03-13T21:54:09.393Z,72.46
2023-03-13T21:59:12.236Z,72.28
2023-03-13T22:04:15.104Z,72.26
2023-03-13T22:09:17.934Z,72.00
2023-03-13T22:14:21.884Z,71.90
2023-03-13T22:19:24.726Z,71.21
2023-03-13T22:24:27.580Z,71.60
2023-03-13T22:29:32.118Z,71.02
2023-03-13T22:34:34.925Z,70.70
2023-03-13T22:39:38.081Z,70.21
2023-03-13T22:44:40.883Z,70.07
2023-03-13T22:49:43.731Z,69.21
2023-03-13T22:54:46.756Z,69.01
2023-03-13T22:59:49.564Z,68.45
2023-03-13T23:04:52.477Z,68.45
2023-03-13T23:09:56.050Z,68.24
2023-03-13T23:15:02.247Z,67.74
2023-03-13T23:20:12.929Z,67.56
2023-03-13T23:25:18.192Z,66.82
2023-03-13T23:30:21.213Z,67.47
2023-03-13T23:35:24.081Z,67.04
2023-03-13T23:40:28.394Z,66.64
2023-03-13T23:45:31.281Z,66.92
2023-03-13T23:50:34.098Z,66.88
2023-03-13T23:55:36.868Z,65.89
